Create Tblcommutelog Verified Points Advance Search
| # | Trip ID | Id Commuter | Trip Date | Trip Num | Current Lat | Current Lng | Delta Distance | Current Time | Activity | Activity Confidence | Current Speed | |
|---|---|---|---|---|---|---|---|---|---|---|---|---|
| 69721 | 251208_775339_16418565_0649 | 775339 | (not set) | (not set) | 38.927106123326 | -77.199791223128 | 14.2933 | 2025-12-08 07:14:23 | in_vehicle | 100 | 10.000268223555 | |
| 69722 | 251208_775339_16418565_0649 | 775339 | (not set) | (not set) | 38.926813862933 | -77.199649459656 | 14.3148 | 2025-12-08 07:14:24 | in_vehicle | 100 | 10.103087253123 | |
| 69723 | 251208_784389_6428266_0702 | 784389 | (not set) | (not set) | 39.016087393039 | -77.505994034835 | 5.9375 | 2025-12-08 07:14:24 | in_vehicle | 100 | 12.503688073887 | |
| 69724 | 251208_760357_16478572_0656 | 760357 | (not set) | (not set) | 38.951254187465 | -76.869224032231 | 8.9497 | 2025-12-08 07:14:25 | in_vehicle | 100 | 7.9349468470321 | |
| 69725 | 251208_766077_16507807_0711 | 766077 | (not set) | (not set) | 38.807524738511 | -77.222475769403 | 0.8069 | 2025-12-08 07:14:25 | in_vehicle | 100 | 5.8293919371999 | |
| 69726 | 251208_766077_16507807_0711 | 766077 | (not set) | (not set) | 38.807524738511 | -77.222475769403 | 0.8069 | 2025-12-08 07:14:25 | in_vehicle | 100 | 5.8293919371999 | |
| 69727 | 251208_760357_16478572_0656 | 760357 | (not set) | (not set) | 38.951254187465 | -76.869224032231 | 8.9497 | 2025-12-08 07:14:25 | in_vehicle | 100 | 7.9349468470321 | |
| 69728 | 251208_772259_16460160_0704 | 772259 | (not set) | (not set) | 39.0141431 | -77.0583292 | 5.6777 | 2025-12-08 07:14:25 | in_vehicle | 100 | 10.876465171171 | |
| 69729 | 251208_784252_16652453_0701 | 784252 | (not set) | (not set) | 39.416759725676 | -77.438270555935 | 2.8851 | 2025-12-08 07:14:25 | in_vehicle | 100 | 0 | |
| 69730 | 251208_779684_16420702_0635 | 779684 | (not set) | (not set) | 39.24539127269 | -77.054735006876 | 26.3817 | 2025-12-08 07:14:26 | in_vehicle | 100 | 11.225155793182 | |
| 69731 | 251208_770872_16486958_0702 | 770872 | (not set) | (not set) | 39.2146312 | -76.7325996 | 9.0957 | 2025-12-08 07:14:26 | in_vehicle | 100 | 12.579684747915 | |
| 69732 | 251208_786026_16514421_0701 | 786026 | (not set) | (not set) | 38.979640040052 | -76.932289315043 | 1.268 | 2025-12-08 07:14:27 | on_bicycle | 100 | 1.7568642878218 | |
| 69733 | 251208_790339_16443131_0702 | 790339 | (not set) | (not set) | 39.1822283 | -76.7943167 | 1.1647 | 2025-12-08 07:14:27 | still | 100 | 9.5934624978766 | |
| 69734 | 251208_785230_16490874_0712 | 785230 | (not set) | (not set) | 38.817832196537 | -76.838458452103 | 0.3801 | 2025-12-08 07:14:28 | in_vehicle | 100 | 3.4153799386662 | |
| 69735 | 251208_785230_16490874_0712 | 785230 | (not set) | (not set) | 38.817832196537 | -76.838458452103 | 0.3801 | 2025-12-08 07:14:28 | in_vehicle | 100 | 3.4153799386662 | |
| 69736 | 251208_738572_16489587_0657 | 738572 | (not set) | (not set) | 38.944046293689 | -76.786537355223 | 7.8367 | 2025-12-08 07:14:28 | in_vehicle | 100 | 13.768809176822 | |
| 69737 | 251208_714319_16514952_0651 | 714319 | (not set) | (not set) | 38.83342704167 | -77.102369951913 | 14.6296 | 2025-12-08 07:14:29 | in_vehicle | 100 | 15.038400672347 | |
| 69738 | 251208_714319_16514952_0651 | 714319 | (not set) | (not set) | 38.83342704167 | -77.102369951913 | 14.6296 | 2025-12-08 07:14:29 | in_vehicle | 100 | 15.038400672347 | |
| 69739 | 251208_788956_16505268_0634 | 788956 | (not set) | (not set) | 38.790107045115 | -77.172764996721 | 36.1941 | 2025-12-08 07:14:29 | in_vehicle | 100 | 12.280168444393 | |
| 69740 | 251208_789321_16432669_0701 | 789321 | (not set) | (not set) | 39.075080112764 | -77.135291996013 | 7.7472 | 2025-12-08 07:14:30 | in_vehicle | 100 | 11.730310155838 |